Time;durP1;ratioP1;P1;durP2;ratioP2;P2;SDS_P1;SDS_P2;PMS_P1;PMS_P2;Temp;Humidity;BMP_temperature;BMP_pressure;BME280_temperature;BME280_humidity;BME280_pressure;Samples;Min_cycle;Max_cycle;Signal;HPM_P1;HPM_P2
2023/03/15 00:00:38;;;;;;;;;;;;;;;19.36;60.58;97445.50;2074923;28;20323;-55
2023/03/15 00:01:39;;;;;;;;;;;;;;;19.36;60.56;97438.28;2073574;28;21879;-54
2023/03/15 00:02:41;;;;;;;;;;;;;;;19.35;60.42;97442.00;2078885;28;19990;-56
2023/03/15 00:03:41;;;;;;;;;;;;;;;19.35;60.25;97442.00;2084442;28;19928;-56
2023/03/15 00:04:43;;;;;;;;;;;;;;;19.34;60.57;97443.06;2081452;28;20478;-57
2023/03/15 00:05:44;;;;;;;;;;;;;;;19.36;60.21;97448.19;2064315;28;24130;-59
2023/03/15 00:06:45;;;;;;;;;;;;;;;19.34;60.50;97444.94;2074758;28;19933;-56
2023/03/15 00:07:46;;;;;;;;;;;;;;;19.34;60.13;97444.94;2077238;28;20331;-57
2023/03/15 00:08:47;;;;;;;;;;;;;;;19.34;60.39;97453.00;2072996;28;19965;-55
2023/03/15 00:09:48;;;;;;;;;;;;;;;19.33;60.63;97454.03;2076187;28;21163;-57
2023/03/15 00:10:49;;;;;;;;;;;;;;;19.31;60.43;97448.09;2077368;28;19988;-56
2023/03/15 00:11:50;;;;;;;;;;;;;;;19.32;60.58;97447.03;2070192;28;19937;-56
2023/03/15 00:12:52;;;;;;;;;;;;;;;19.32;60.53;97455.91;2078801;28;19929;-54
2023/03/15 00:13:52;;;;;;;;;;;;;;;19.30;60.63;97452.63;2077058;28;20472;-56
2023/03/15 00:14:55;;;;;;;;;;;;;;;19.31;60.37;97453.47;2071877;28;19941;-57
2023/03/15 00:15:57;;;;;;;;;;;;;;;19.30;60.51;97451.81;2072620;28;20027;-55
2023/03/15 00:16:58;;;;;;;;;;;;;;;19.31;60.59;97458.84;2079037;28;20023;-56
2023/03/15 00:18:02;;;;;;;;;;;;;;;19.31;60.25;97458.84;2076594;28;19982;-55
2023/03/15 00:19:03;;;;;;;;;;;;;;;19.28;60.61;97460.16;2075974;28;19929;-56
2023/03/15 00:20:05;;;;;;;;;;;;;;;19.28;60.28;97457.44;2073110;28;19933;-54
2023/03/15 00:21:06;;;;;;;;;;;;;;;19.28;60.21;97465.53;2075892;28;20007;-56
2023/03/15 00:22:07;;;;;;;;;;;;;;;19.29;60.40;97466.34;2077145;28;19968;-56
2023/03/15 00:23:09;;;;;;;;;;;;;;;19.28;60.12;97470.06;2081832;28;19929;-56
2023/03/15 00:24:10;;;;;;;;;;;;;;;19.27;60.19;97471.13;2075577;28;19925;-56
2023/03/15 00:25:11;;;;;;;;;;;;;;;19.27;60.15;97477.31;2077382;28;19935;-57
2023/03/15 00:26:12;;;;;;;;;;;;;;;19.26;60.16;97469.50;2078583;28;20859;-55
2023/03/15 00:27:13;;;;;;;;;;;;;;;19.25;60.49;97468.69;2076348;28;19925;-55
2023/03/15 00:28:14;;;;;;;;;;;;;;;19.24;60.40;97468.91;2074562;28;19994;-57
2023/03/15 00:29:15;;;;;;;;;;;;;;;19.24;60.33;97468.91;2078065;28;20367;-57
2023/03/15 00:30:17;;;;;;;;;;;;;;;19.23;60.28;97473.47;2077496;28;20678;-57
2023/03/15 00:31:20;;;;;;;;;;;;;;;19.22;60.36;97471.81;2075899;28;19933;-57
2023/03/15 00:32:20;;;;;;;;;;;;;;;19.22;60.43;97471.81;2076028;28;20402;-54
2023/03/15 00:33:22;;;;;;;;;;;;;;;19.21;60.35;97470.19;2078909;28;19932;-61
2023/03/15 00:34:24;;;;;;;;;;;;;;;19.22;60.62;97462.94;2076347;28;20014;-61
2023/03/15 00:35:26;;;;;;;;;;;;;;;19.22;60.32;97455.69;2079384;28;19976;-57
2023/03/15 00:36:26;;;;;;;;;;;;;;;19.22;60.45;97444.94;2072427;28;19991;-57
2023/03/15 00:37:28;;;;;;;;;;;;;;;19.20;60.44;97445.19;2079538;28;19933;-55
2023/03/15 00:38:28;;;;;;;;;;;;;;;19.20;60.13;97442.50;2073076;28;21180;-61
2023/03/15 00:39:30;;;;;;;;;;;;;;;19.20;60.21;97453.25;2075633;28;20007;-60
2023/03/15 00:40:30;;;;;;;;;;;;;;;19.19;60.40;97450.78;2072798;28;19979;-59
2023/03/15 00:41:32;;;;;;;;;;;;;;;19.20;60.25;97460.50;2081069;28;20422;-53
2023/03/15 00:42:32;;;;;;;;;;;;;;;19.19;60.13;97457.00;2074489;28;19986;-59
2023/03/15 00:43:34;;;;;;;;;;;;;;;19.19;60.45;97461.53;2077199;28;20769;-56
2023/03/15 00:44:35;;;;;;;;;;;;;;;19.18;60.45;97460.72;2075324;28;20663;-59
2023/03/15 00:45:38;;;;;;;;;;;;;;;19.18;60.41;97465.28;2073955;28;19929;-57
2023/03/15 00:46:39;;;;;;;;;;;;;;;19.17;60.22;97464.47;2078084;28;20647;-56
2023/03/15 00:47:40;;;;;;;;;;;;;;;19.16;60.42;97462.00;2082161;28;19932;-60
2023/03/15 00:48:41;;;;;;;;;;;;;;;19.14;60.42;97456.88;2081031;28;20399;-57
2023/03/15 00:49:42;;;;;;;;;;;;;;;19.15;60.43;97455.00;2078951;28;19936;-56
2023/03/15 00:50:43;;;;;;;;;;;;;;;19.12;60.45;97450.91;2078484;28;19994;-60
2023/03/15 00:51:44;;;;;;;;;;;;;;;19.13;60.29;97454.41;2074560;28;19980;-58
2023/03/15 00:52:45;;;;;;;;;;;;;;;19.14;60.15;97453.38;2076905;28;19939;-59
2023/03/15 00:53:47;;;;;;;;;;;;;;;19.13;59.99;97457.13;2079321;28;20008;-58
2023/03/15 00:54:51;;;;;;;;;;;;;;;19.12;60.49;97456.28;2074044;28;20031;-60
2023/03/15 00:55:52;;;;;;;;;;;;;;;19.12;60.18;97458.19;2076614;28;19983;-61
2023/03/15 00:56:53;;;;;;;;;;;;;;;19.09;60.35;97448.72;2083036;28;19976;-53
2023/03/15 00:57:54;;;;;;;;;;;;;;;19.11;60.57;97457.38;2076167;28;19941;-56
2023/03/15 00:58:54;;;;;;;;;;;;;;;19.10;60.15;97457.59;2073349;28;19937;-58
2023/03/15 00:59:56;;;;;;;;;;;;;;;19.09;60.50;97447.91;2080861;28;19925;-59
2023/03/15 01:00:59;;;;;;;;;;;;;;;19.09;60.22;97445.22;2077045;28;20070;-60
2023/03/15 01:02:01;;;;;;;;;;;;;;;19.08;60.18;97452.44;2076677;28;19929;-58
2023/03/15 01:03:01;;;;;;;;;;;;;;;19.09;60.00;97456.78;2076113;28;20006;-59
2023/03/15 01:04:03;;;;;;;;;;;;;;;19.07;60.25;97461.56;2079735;28;19932;-59
2023/03/15 01:05:03;;;;;;;;;;;;;;;19.08;60.04;97473.13;2075502;28;21190;-56
2023/03/15 01:06:05;;;;;;;;;;;;;;;19.05;60.29;97458.28;2077944;28;19932;-58
2023/03/15 01:07:06;;;;;;;;;;;;;;;19.05;60.43;97466.34;2076400;28;19929;-58
2023/03/15 01:08:07;;;;;;;;;;;;;;;19.05;60.14;97465.53;2081062;28;19928;-57
2023/03/15 01:09:08;;;;;;;;;;;;;;;19.03;60.42;97467.63;2081842;28;19929;-55
2023/03/15 01:10:10;;;;;;;;;;;;;;;19.04;60.25;97455.84;2067539;28;19925;-57
2023/03/15 01:11:12;;;;;;;;;;;;;;;19.04;60.34;97463.91;2067117;28;19929;-60
2023/03/15 01:12:13;;;;;;;;;;;;;;;19.02;60.17;97455.25;2079199;28;19979;-56
2023/03/15 01:13:14;;;;;;;;;;;;;;;19.01;60.18;97462.50;2075751;28;19955;-60
2023/03/15 01:14:17;;;;;;;;;;;;;;;19.02;60.38;97455.25;2072794;28;20577;-56
2023/03/15 01:15:18;;;;;;;;;;;;;;;19.00;60.18;97460.88;2079636;28;20435;-54
2023/03/15 01:16:21;;;;;;;;;;;;;;;18.99;60.09;97472.66;2075779;28;19979;-59
2023/03/15 01:17:21;;;;;;;;;;;;;;;18.95;60.48;97469.63;2076621;28;19956;-55
2023/03/15 01:18:23;;;;;;;;;;;;;;;18.96;60.45;97471.25;2073702;28;20023;-60
2023/03/15 01:19:23;;;;;;;;;;;;;;;18.97;60.23;97486.34;2079848;28;19933;-58
2023/03/15 01:20:25;;;;;;;;;;;;;;;18.97;60.30;97475.59;2078952;28;19937;-57
2023/03/15 01:21:25;;;;;;;;;;;;;;;18.97;60.18;97480.97;2077436;28;19932;-55
2023/03/15 01:22:27;;;;;;;;;;;;;;;18.97;60.19;97482.81;2075145;28;19933;-53
2023/03/15 01:23:27;;;;;;;;;;;;;;;18.97;60.23;97480.97;2070146;28;19941;-57
2023/03/15 01:24:28;;;;;;;;;;;;;;;18.96;60.25;97478.50;2076127;28;19933;-54
2023/03/15 01:25:29;;;;;;;;;;;;;;;18.95;60.22;97477.69;2078627;28;19928;-57
2023/03/15 01:26:30;;;;;;;;;;;;;;;18.94;60.48;97476.06;2072736;28;20093;-53
2023/03/15 01:27:31;;;;;;;;;;;;;;;18.94;60.27;97476.06;2078030;28;19928;-54
2023/03/15 01:28:34;;;;;;;;;;;;;;;18.93;60.46;97474.41;2077552;28;20223;-56
2023/03/15 01:29:34;;;;;;;;;;;;;;;18.94;60.14;97473.38;2078078;28;19937;-56
2023/03/15 01:30:36;;;;;;;;;;;;;;;18.91;60.31;97468.44;2075625;28;19928;-61
2023/03/15 01:31:38;;;;;;;;;;;;;;;18.90;60.42;97464.13;2076718;28;19944;-59
2023/03/15 01:32:39;;;;;;;;;;;;;;;18.90;60.62;97457.94;2076580;28;20470;-54
2023/03/15 01:33:40;;;;;;;;;;;;;;;18.91;60.27;97454.19;2076688;28;19936;-60
2023/03/15 01:34:42;;;;;;;;;;;;;;;18.89;60.29;97462.50;2081674;28;19936;-58
2023/03/15 01:35:42;;;;;;;;;;;;;;;18.88;60.41;97468.91;2078093;28;19933;-58
2023/03/15 01:36:44;;;;;;;;;;;;;;;18.90;60.53;97479.44;2080030;28;19979;-55
2023/03/15 01:37:44;;;;;;;;;;;;;;;18.90;60.48;97468.69;2076030;28;20322;-56
2023/03/15 01:38:48;;;;;;;;;;;;;;;18.90;60.22;97474.06;2078749;28;19929;-56
2023/03/15 01:39:49;;;;;;;;;;;;;;;18.88;60.18;97468.91;2080797;28;20317;-55
2023/03/15 01:40:50;;;;;;;;;;;;;;;18.88;60.25;97474.28;2079595;28;19932;-53
2023/03/15 01:41:50;;;;;;;;;;;;;;;18.88;60.44;97485.03;2078027;28;19933;-58
2023/03/15 01:42:53;;;;;;;;;;;;;;;18.87;60.63;97486.09;2080330;28;20015;-59
2023/03/15 01:43:53;;;;;;;;;;;;;;;18.87;60.36;97486.09;2077821;28;19929;-60
2023/03/15 01:44:56;;;;;;;;;;;;;;;18.86;60.63;97489.84;2078836;28;19987;-61
2023/03/15 01:46:00;;;;;;;;;;;;;;;18.86;60.29;97489.84;2073449;28;19980;-60
2023/03/15 01:47:03;;;;;;;;;;;;;;;18.86;60.41;97487.16;2078469;28;20104;-56
2023/03/15 01:48:04;;;;;;;;;;;;;;;18.85;60.29;97498.13;2082421;28;19925;-59
2023/03/15 01:49:07;;;;;;;;;;;;;;;18.84;60.45;97497.31;2079803;28;20031;-60
2023/03/15 01:50:10;;;;;;;;;;;;;;;18.85;60.19;97503.50;2081457;28;20442;-55
2023/03/15 01:51:16;;;;;;;;;;;;;;;18.85;60.11;97500.81;2077100;28;19943;-58
2023/03/15 01:52:20;;;;;;;;;;;;;;;18.84;60.39;97501.88;2079770;28;19940;-56
2023/03/15 01:53:22;;;;;;;;;;;;;;;18.81;60.24;97500.47;2084379;28;20473;-55
2023/03/15 01:54:26;;;;;;;;;;;;;;;18.83;60.31;97497.53;2082799;28;19994;-52
2023/03/15 01:55:28;;;;;;;;;;;;;;;18.80;60.19;97493.44;2078994;28;19932;-52
2023/03/15 01:56:29;;;;;;;;;;;;;;;18.78;60.57;97492.88;2080755;28;19932;-58
2023/03/15 01:57:35;;;;;;;;;;;;;;;18.80;60.15;97500.69;2083173;28;19995;-57
2023/03/15 01:58:35;;;;;;;;;;;;;;;18.79;60.62;97489.13;2079237;28;19928;-59
2023/03/15 01:59:39;;;;;;;;;;;;;;;18.76;60.38;97497.66;2079696;28;20040;-54
2023/03/15 02:00:40;;;;;;;;;;;;;;;18.76;60.52;97489.59;2081207;28;19932;-57
2023/03/15 02:01:44;;;;;;;;;;;;;;;18.75;60.26;97502.22;2079716;28;20723;-55
2023/03/15 02:02:48;;;;;;;;;;;;;;;18.76;60.35;97492.28;2080773;28;19928;-61
2023/03/15 02:03:52;;;;;;;;;;;;;;;18.75;60.33;97499.53;2082559;28;20029;-59
2023/03/15 02:04:57;;;;;;;;;;;;;;;18.75;60.31;97499.53;2079635;28;19929;-58
2023/03/15 02:06:00;;;;;;;;;;;;;;;18.76;60.31;97505.72;2077612;28;20889;-52
2023/03/15 02:07:03;;;;;;;;;;;;;;;18.74;60.45;97499.75;2076414;28;19972;-57
2023/03/15 02:08:05;;;;;;;;;;;;;;;18.76;60.21;97513.78;2085824;28;20074;-58
2023/03/15 02:09:13;;;;;;;;;;;;;;;18.76;60.13;97511.09;2079151;28;19948;-57
2023/03/15 02:10:14;;;;;;;;;;;;;;;18.72;60.59;97510.72;2080256;28;19936;-57
2023/03/15 02:11:17;;;;;;;;;;;;;;;18.73;60.57;97511.53;2085081;28;19925;-60
2023/03/15 02:12:19;;;;;;;;;;;;;;;18.71;60.48;97509.06;2082717;28;19925;-56
2023/03/15 02:13:21;;;;;;;;;;;;;;;18.70;60.56;97514.66;2078455;28;19933;-60
2023/03/15 02:14:23;;;;;;;;;;;;;;;18.71;60.36;97513.63;2077258;28;19940;-60
2023/03/15 02:15:24;;;;;;;;;;;;;;;18.70;60.53;97520.03;2081937;28;20512;-58
2023/03/15 02:16:25;;;;;;;;;;;;;;;18.69;60.47;97516.53;2083494;28;19928;-54
2023/03/15 02:17:30;;;;;;;;;;;;;;;18.68;60.54;97512.19;2072408;28;19929;-59
2023/03/15 02:18:35;;;;;;;;;;;;;;;18.67;60.52;97513.25;2075940;28;20539;-54
2023/03/15 02:19:41;;;;;;;;;;;;;;;18.67;60.55;97513.25;2078321;28;19932;-61
2023/03/15 02:20:49;;;;;;;;;;;;;;;18.66;60.40;97511.59;2084055;28;19979;-57
2023/03/15 02:21:56;;;;;;;;;;;;;;;18.68;60.52;97511.38;2083910;28;19929;-58
2023/03/15 02:22:58;;;;;;;;;;;;;;;18.67;60.54;97513.25;2082531;28;19928;-61
2023/03/15 02:24:04;;;;;;;;;;;;;;;18.67;60.47;97507.88;2078060;28;21391;-54
2023/03/15 02:25:10;;;;;;;;;;;;;;;18.64;60.41;97507.53;2079094;28;20023;-57
2023/03/15 02:26:16;;;;;;;;;;;;;;;18.64;60.47;97511.03;2083616;28;19979;-60
2023/03/15 02:27:22;;;;;;;;;;;;;;;18.64;60.77;97511.03;2078466;28;19933;-54
2023/03/15 02:28:22;;;;;;;;;;;;;;;18.62;60.70;97509.63;2078980;28;19933;-58
2023/03/15 02:29:25;;;;;;;;;;;;;;;18.63;60.65;97512.06;2082718;28;19940;-58
2023/03/15 02:30:26;;;;;;;;;;;;;;;18.63;60.39;97511.25;2074433;28;19929;-58
2023/03/15 02:31:28;;;;;;;;;;;;;;;18.61;60.64;97505.28;2078762;28;19988;-53
2023/03/15 02:32:29;;;;;;;;;;;;;;;18.60;60.63;97511.72;2084604;28;19924;-61
2023/03/15 02:33:33;;;;;;;;;;;;;;;18.59;60.61;97510.09;2082464;28;19929;-59
2023/03/15 02:34:34;;;;;;;;;;;;;;;18.60;60.42;97509.03;2072487;28;19936;-60
2023/03/15 02:35:35;;;;;;;;;;;;;;;18.58;60.69;97503.06;2079540;28;19937;-61
2023/03/15 02:36:35;;;;;;;;;;;;;;;18.58;60.44;97505.75;2083955;28;20326;-61
2023/03/15 02:37:37;;;;;;;;;;;;;;;18.56;60.41;97503.31;2081715;28;19928;-58
2023/03/15 02:38:37;;;;;;;;;;;;;;;18.58;60.52;97505.75;2080666;28;19984;-57
2023/03/15 02:39:39;;;;;;;;;;;;;;;18.57;60.67;97509.50;2078478;28;20008;-55
2023/03/15 02:40:40;;;;;;;;;;;;;;;18.58;60.78;97511.94;2081569;28;19933;-54
2023/03/15 02:41:42;;;;;;;;;;;;;;;18.59;60.62;97507.41;2081409;28;19929;-61
2023/03/15 02:42:45;;;;;;;;;;;;;;;18.59;60.59;97510.91;2083812;28;19987;-61
2023/03/15 02:43:48;;;;;;;;;;;;;;;18.57;60.56;97513.00;2080887;28;20027;-61
2023/03/15 02:44:50;;;;;;;;;;;;;;;18.57;60.40;97513.00;2080146;28;20028;-57
2023/03/15 02:45:51;;;;;;;;;;;;;;;18.58;60.53;97521.88;2079533;28;19928;-57
2023/03/15 02:46:53;;;;;;;;;;;;;;;18.56;60.66;97516.75;2081158;28;20441;-53
2023/03/15 02:47:55;;;;;;;;;;;;;;;18.56;60.58;97514.06;2081264;28;19928;-60
2023/03/15 02:48:56;;;;;;;;;;;;;;;18.58;60.60;97520.00;2085776;28;19928;-57
2023/03/15 02:49:57;;;;;;;;;;;;;;;18.57;60.46;97522.94;2078726;28;19925;-56
2023/03/15 02:50:58;;;;;;;;;;;;;;;18.53;60.42;97517.22;2071870;28;20391;-58
2023/03/15 02:51:59;;;;;;;;;;;;;;;18.53;60.59;97519.91;2080776;28;19929;-58
2023/03/15 02:53:01;;;;;;;;;;;;;;;18.53;60.42;97520.72;2077736;28;19933;-58
2023/03/15 02:54:03;;;;;;;;;;;;;;;18.54;60.70;97526.88;2080233;28;19925;-56
2023/03/15 02:55:04;;;;;;;;;;;;;;;18.53;60.36;97522.59;2076343;28;19990;-57
2023/03/15 02:56:06;;;;;;;;;;;;;;;18.52;60.41;97531.66;2078996;28;20585;-56
2023/03/15 02:57:06;;;;;;;;;;;;;;;18.53;60.38;97525.25;2079973;28;19936;-57
2023/03/15 02:58:09;;;;;;;;;;;;;;;18.52;60.38;97531.66;2075837;28;19928;-57
2023/03/15 02:59:11;;;;;;;;;;;;;;;18.51;60.51;97525.47;2078222;28;19999;-53
2023/03/15 03:00:13;;;;;;;;;;;;;;;18.51;60.48;97530.84;2075514;28;19939;-58
2023/03/15 03:01:15;;;;;;;;;;;;;;;18.50;60.62;97525.72;2077019;28;19929;-59
2023/03/15 03:02:16;;;;;;;;;;;;;;;18.48;60.54;97533.19;2085126;28;19975;-57
2023/03/15 03:03:17;;;;;;;;;;;;;;;18.48;60.42;97531.31;2081371;28;19928;-54
2023/03/15 03:04:18;;;;;;;;;;;;;;;18.47;60.51;97534.22;2081162;28;19924;-56
2023/03/15 03:05:19;;;;;;;;;;;;;;;18.47;60.36;97532.38;2080677;28;19979;-57
2023/03/15 03:06:21;;;;;;;;;;;;;;;18.47;60.69;97532.38;2079356;28;19933;-56
2023/03/15 03:07:21;;;;;;;;;;;;;;;18.46;60.46;97535.28;2078203;28;19928;-56
2023/03/15 03:08:22;;;;;;;;;;;;;;;18.46;60.35;97530.72;2078185;28;21816;-56
2023/03/15 03:09:23;;;;;;;;;;;;;;;18.47;60.67;97539.59;2077847;28;19929;-56
2023/03/15 03:10:25;;;;;;;;;;;;;;;18.47;60.63;97542.28;2076869;28;19978;-58
2023/03/15 03:11:25;;;;;;;;;;;;;;;18.44;60.73;97546.25;2081877;28;20414;-52
2023/03/15 03:12:27;;;;;;;;;;;;;;;18.44;60.62;97543.56;2082012;28;20000;-57
2023/03/15 03:13:29;;;;;;;;;;;;;;;18.44;60.48;97537.34;2077712;28;19929;-55
2023/03/15 03:14:30;;;;;;;;;;;;;;;18.44;60.73;97538.19;2080586;28;19932;-56
2023/03/15 03:15:31;;;;;;;;;;;;;;;18.44;60.72;97543.56;2074642;28;19987;-56
2023/03/15 03:16:32;;;;;;;;;;;;;;;18.43;60.72;97541.91;2068982;28;22242;-57
2023/03/15 03:17:36;;;;;;;;;;;;;;;18.44;60.60;97542.72;2074117;28;19987;-57
2023/03/15 03:18:38;;;;;;;;;;;;;;;18.42;60.50;97548.34;2079167;28;19979;-57
2023/03/15 03:19:38;;;;;;;;;;;;;;;18.41;60.65;97545.88;2071414;28;21142;-56
2023/03/15 03:20:40;;;;;;;;;;;;;;;18.42;60.65;97532.25;2075142;28;19929;-56
2023/03/15 03:21:42;;;;;;;;;;;;;;;18.40;60.57;97545.06;2075537;28;19934;-56
2023/03/15 03:22:44;;;;;;;;;;;;;;;18.40;60.65;97550.44;2075493;28;20294;-58
2023/03/15 03:23:45;;;;;;;;;;;;;;;18.39;60.76;97548.81;2072179;28;19944;-57
2023/03/15 03:24:47;;;;;;;;;;;;;;;18.37;60.60;97553.56;2074653;28;19936;-55
2023/03/15 03:25:47;;;;;;;;;;;;;;;18.42;60.66;97553.72;2074931;28;19940;-57
2023/03/15 03:26:49;;;;;;;;;;;;;;;18.40;60.66;97555.00;2074071;28;20298;-53
2023/03/15 03:27:49;;;;;;;;;;;;;;;18.38;60.50;97557.06;2069431;28;20048;-58
2023/03/15 03:28:52;;;;;;;;;;;;;;;18.38;60.81;97551.69;2079155;28;20223;-56
2023/03/15 03:29:53;;;;;;;;;;;;;;;18.39;60.64;97558.72;2070158;28;19932;-58
2023/03/15 03:30:55;;;;;;;;;;;;;;;18.38;60.52;97563.25;2075899;28;20390;-58
2023/03/15 03:31:55;;;;;;;;;;;;;;;18.38;60.55;97565.13;2069052;28;19940;-58
2023/03/15 03:32:57;;;;;;;;;;;;;;;18.38;60.67;97563.25;2073009;28;19950;-57
2023/03/15 03:33:58;;;;;;;;;;;;;;;18.38;60.63;97565.94;2069648;28;20045;-58
2023/03/15 03:34:59;;;;;;;;;;;;;;;18.39;60.60;97567.59;2069632;28;19960;-55
2023/03/15 03:36:01;;;;;;;;;;;;;;;18.39;60.56;97569.47;2068482;28;19932;-58
2023/03/15 03:37:02;;;;;;;;;;;;;;;18.37;60.46;97567.00;2072718;28;19964;-56
2023/03/15 03:38:03;;;;;;;;;;;;;;;18.38;60.31;97567.81;2075443;28;20936;-56
2023/03/15 03:39:04;;;;;;;;;;;;;;;18.38;60.54;97565.13;2077204;28;19975;-58
2023/03/15 03:40:07;;;;;;;;;;;;;;;18.36;60.62;97564.53;2076910;28;19968;-57
2023/03/15 03:41:08;;;;;;;;;;;;;;;18.34;60.63;97566.66;2072242;28;19934;-57
2023/03/15 03:42:09;;;;;;;;;;;;;;;18.35;60.74;97577.13;2073242;28;19979;-57
2023/03/15 03:43:11;;;;;;;;;;;;;;;18.33;60.51;97576.56;2074756;28;20019;-57
2023/03/15 03:44:12;;;;;;;;;;;;;;;18.32;60.72;97580.28;2072096;28;19979;-57
2023/03/15 03:45:14;;;;;;;;;;;;;;;18.32;60.76;97582.97;2077829;28;19936;-55
2023/03/15 03:46:14;;;;;;;;;;;;;;;18.31;60.56;97581.34;2071904;28;19937;-57
2023/03/15 03:47:16;;;;;;;;;;;;;;;18.32;60.70;97588.31;2069552;28;20845;-57
2023/03/15 03:48:16;;;;;;;;;;;;;;;18.32;60.62;97582.97;2074847;28;19951;-57
2023/03/15 03:49:18;;;;;;;;;;;;;;;18.33;60.62;97586.47;2083608;28;20014;-58
2023/03/15 03:50:18;;;;;;;;;;;;;;;18.32;60.48;97585.66;2080553;28;20002;-56
2023/03/15 03:51:19;;;;;;;;;;;;;;;18.33;60.45;97586.47;2077231;28;19995;-57
2023/03/15 03:53:40;;;;;;;;;;;;;;;18.30;60.42;97588.56;2076948;28;19929;-56
2023/03/15 03:54:41;;;;;;;;;;;;;;;18.30;60.73;97593.09;2074304;28;19928;-57
2023/03/15 03:55:43;;;;;;;;;;;;;;;18.29;60.52;97588.78;2076004;28;20985;-58
2023/03/15 03:56:43;;;;;;;;;;;;;;;18.29;60.71;97589.59;2079816;28;19986;-55
2023/03/15 03:57:45;;;;;;;;;;;;;;;18.29;60.51;97586.09;2081945;28;20354;-56
2023/03/15 03:58:45;;;;;;;;;;;;;;;18.28;60.54;97579.91;2075342;28;19987;-57
2023/03/15 03:59:48;;;;;;;;;;;;;;;18.29;60.55;97596.84;2076117;28;21144;-57
2023/03/15 04:00:53;;;;;;;;;;;;;;;18.29;60.54;97580.72;2080828;28;20579;-57
2023/03/15 04:01:54;;;;;;;;;;;;;;;18.27;60.59;97583.63;2079771;28;19933;-55
2023/03/15 04:02:54;;;;;;;;;;;;;;;18.28;60.66;97587.16;2081178;28;19964;-57
2023/03/15 04:03:56;;;;;;;;;;;;;;;18.27;60.42;97588.19;2078879;28;20645;-58
2023/03/15 04:04:56;;;;;;;;;;;;;;;18.27;60.49;97589.00;2078021;28;20278;-56
2023/03/15 04:05:59;;;;;;;;;;;;;;;18.26;60.78;97598.09;2079170;28;19991;-57
2023/03/15 04:06:59;;;;;;;;;;;;;;;18.27;60.63;97589.00;2075440;28;19934;-54
2023/03/15 04:08:01;;;;;;;;;;;;;;;18.26;60.43;97591.94;2080964;28;19999;-58
2023/03/15 04:09:03;;;;;;;;;;;;;;;18.23;60.72;97595.88;2074283;28;20469;-58
2023/03/15 04:10:04;;;;;;;;;;;;;;;18.25;60.60;97598.34;2075244;28;19996;-58
2023/03/15 04:11:05;;;;;;;;;;;;;;;18.25;60.59;97595.66;2077182;28;20055;-58
2023/03/15 04:12:07;;;;;;;;;;;;;;;18.24;60.53;97605.56;2077315;28;19929;-56
2023/03/15 04:13:07;;;;;;;;;;;;;;;18.24;60.41;97602.06;2068118;28;20478;-59
2023/03/15 04:14:09;;;;;;;;;;;;;;;18.26;60.39;97603.47;2075209;28;19933;-54
2023/03/15 04:15:11;;;;;;;;;;;;;;;18.26;60.55;97608.84;2071059;28;20086;-56
2023/03/15 04:16:13;;;;;;;;;;;;;;;18.25;60.30;97604.53;2071791;28;20530;-54
2023/03/15 04:17:13;;;;;;;;;;;;;;;18.26;60.47;97608.03;2075937;28;19929;-55
2023/03/15 04:18:15;;;;;;;;;;;;;;;18.24;60.48;97605.56;2076842;28;19960;-54
2023/03/15 04:19:15;;;;;;;;;;;;;;;18.24;60.34;97602.88;2076766;28;19992;-58
2023/03/15 04:20:19;;;;;;;;;;;;;;;18.24;60.57;97607.44;2077634;28;20358;-58
2023/03/15 04:21:21;;;;;;;;;;;;;;;18.23;60.43;97609.31;2072339;28;20407;-55
2023/03/15 04:22:23;;;;;;;;;;;;;;;18.25;60.46;97606.41;2081438;28;19976;-52
2023/03/15 04:23:23;;;;;;;;;;;;;;;18.22;60.62;97609.50;2081889;28;19932;-56
2023/03/15 04:24:25;;;;;;;;;;;;;;;18.24;60.52;97602.06;2074840;28;20272;-57
2023/03/15 04:25:26;;;;;;;;;;;;;;;18.23;60.44;97603.94;2077865;28;20792;-54
2023/03/15 04:26:27;;;;;;;;;;;;;;;18.23;60.55;97619.22;2077559;28;19987;-56
2023/03/15 04:27:28;;;;;;;;;;;;;;;18.23;60.57;97600.44;2075513;28;19984;-56
2023/03/15 04:28:29;;;;;;;;;;;;;;;18.23;60.59;97608.50;2079211;28;19924;-53
2023/03/15 04:29:30;;;;;;;;;;;;;;;18.23;60.44;97617.34;2079494;28;25375;-54
2023/03/15 04:30:33;;;;;;;;;;;;;;;18.24;60.38;97610.13;2078495;28;19943;-57
2023/03/15 04:31:36;;;;;;;;;;;;;;;18.22;60.36;97610.34;2079679;28;19929;-56
2023/03/15 04:32:38;;;;;;;;;;;;;;;18.23;60.40;97614.66;2080024;28;19929;-56
2023/03/15 04:33:38;;;;;;;;;;;;;;;18.24;60.40;97612.78;2080023;28;20027;-57
2023/03/15 04:34:40;;;;;;;;;;;;;;;18.25;60.56;97615.28;2077891;28;19936;-55
2023/03/15 04:35:41;;;;;;;;;;;;;;;18.27;60.42;97612.34;2076931;28;20353;-57
2023/03/15 04:36:42;;;;;;;;;;;;;;;18.31;60.31;97617.03;2079431;28;20489;-56
2023/03/15 04:37:43;;;;;;;;;;;;;;;18.35;60.20;97612.03;2074983;28;19929;-57
2023/03/15 04:38:45;;;;;;;;;;;;;;;18.38;60.21;97616.13;2074046;28;19928;-57
2023/03/15 04:39:45;;;;;;;;;;;;;;;18.39;59.94;97621.28;2077410;28;19939;-56
2023/03/15 04:40:47;;;;;;;;;;;;;;;18.41;60.19;97627.22;2075262;28;19924;-58
2023/03/15 04:41:48;;;;;;;;;;;;;;;18.46;60.09;97627.38;2081758;28;19925;-58
2023/03/15 04:42:49;;;;;;;;;;;;;;;18.50;60.13;97628.56;2077360;28;19988;-57
2023/03/15 04:43:50;;;;;;;;;;;;;;;18.52;60.12;97633.69;2076425;28;19940;-57
2023/03/15 04:44:52;;;;;;;;;;;;;;;18.58;59.74;97629.28;2076157;28;19928;-56
2023/03/15 04:45:54;;;;;;;;;;;;;;;18.62;59.84;97630.47;2077596;28;20947;-56
2023/03/15 04:46:56;;;;;;;;;;;;;;;18.65;59.73;97635.41;2081116;28;19928;-57
2023/03/15 04:47:57;;;;;;;;;;;;;;;18.69;59.79;97636.56;2080707;28;20500;-58
2023/03/15 04:48:58;;;;;;;;;;;;;;;18.72;59.82;97636.94;2080946;28;19943;-57
2023/03/15 04:49:59;;;;;;;;;;;;;;;18.76;59.55;97634.66;2074933;28;20036;-58
2023/03/15 04:51:00;;;;;;;;;;;;;;;18.80;59.61;97640.38;2075366;28;20438;-56
2023/03/15 04:52:01;;;;;;;;;;;;;;;18.84;59.73;97644.25;2075228;28;20992;-57
2023/03/15 04:53:02;;;;;;;;;;;;;;;18.87;59.52;97647.28;2075917;28;20523;-58
2023/03/15 04:54:03;;;;;;;;;;;;;;;18.90;59.43;97646.84;2075705;28;19928;-58
2023/03/15 04:55:05;;;;;;;;;;;;;;;18.93;59.13;97654.44;2074168;28;19963;-60
2023/03/15 04:56:05;;;;;;;;;;;;;;;18.97;59.63;97644.88;2080691;28;19964;-58
2023/03/15 04:57:07;;;;;;;;;;;;;;;19.00;59.33;97645.44;2079629;28;20261;-55
2023/03/15 04:58:07;;;;;;;;;;;;;;;19.03;59.18;97651.22;2081634;28;20385;-57
2023/03/15 04:59:10;;;;;;;;;;;;;;;19.04;59.13;97647.47;2079420;28;19929;-53
2023/03/15 05:00:11;;;;;;;;;;;;;;;19.08;59.03;97645.13;2078569;28;20397;-56
2023/03/15 05:01:14;;;;;;;;;;;;;;;19.11;58.91;97645.50;2085728;28;19980;-61
2023/03/15 05:02:15;;;;;;;;;;;;;;;19.16;59.00;97644.78;2073950;28;19924;-57
2023/03/15 05:03:16;;;;;;;;;;;;;;;19.18;59.19;97642.69;2079932;28;19966;-58
2023/03/15 05:04:17;;;;;;;;;;;;;;;19.19;59.01;97641.63;2075062;28;19980;-51
2023/03/15 05:05:18;;;;;;;;;;;;;;;19.20;58.92;97646.78;2072084;28;19936;-55
2023/03/15 05:06:19;;;;;;;;;;;;;;;19.23;58.88;97648.19;2075389;28;20267;-53
2023/03/15 05:07:20;;;;;;;;;;;;;;;19.25;58.71;97647.94;2080503;28;19983;-56
2023/03/15 05:08:21;;;;;;;;;;;;;;;19.27;58.94;97643.97;2075737;28;19928;-57
2023/03/15 05:09:22;;;;;;;;;;;;;;;19.29;58.78;97638.38;2074246;28;19928;-57
2023/03/15 05:10:24;;;;;;;;;;;;;;;19.30;58.98;97640.81;2077524;28;20012;-58
2023/03/15 05:11:24;;;;;;;;;;;;;;;19.32;58.64;97646.81;2077025;28;20869;-58
2023/03/15 05:12:26;;;;;;;;;;;;;;;19.33;58.70;97645.75;2075599;28;20020;-59
2023/03/15 05:13:26;;;;;;;;;;;;;;;19.34;58.71;97649.28;2069856;28;19968;-57
2023/03/15 05:14:27;;;;;;;;;;;;;;;19.36;58.93;97639.94;2080562;28;19928;-57
2023/03/15 05:15:28;;;;;;;;;;;;;;;19.38;58.68;97647.75;2077096;28;19941;-58
2023/03/15 05:16:31;;;;;;;;;;;;;;;19.39;58.57;97650.22;2078659;28;19971;-59
2023/03/15 05:17:32;;;;;;;;;;;;;;;19.40;58.42;97646.47;2076434;28;19933;-57
2023/03/15 05:18:34;;;;;;;;;;;;;;;19.41;58.73;97653.47;2077649;28;19933;-58
2023/03/15 05:19:34;;;;;;;;;;;;;;;19.43;58.62;97647.88;2082794;28;20517;-58
2023/03/15 05:20:36;;;;;;;;;;;;;;;19.43;58.37;97651.38;2077540;28;20031;-58
2023/03/15 05:21:36;;;;;;;;;;;;;;;19.45;58.60;97650.34;2082754;28;19987;-57
2023/03/15 05:22:38;;;;;;;;;;;;;;;19.45;58.62;97647.66;2075942;28;19936;-59